METAR Data
IDs: Format: Raw Decoded Include TAF

Data at: 2146 UTC 02 Aug 2021

LIPQ 022120Z AUTO 13004KT 9999 FEW140/// 20/17 Q1014